トビリシ の空港の天気 - METARとTAF

トビリシ国際空港 ( UGTB / TBS ) - ジョージア トビリシ
飛行場実況気象(Metar)
観測時間01/21 22:00 GET (01/21 18:00 UTC)
風向・風速西 3m/s
視程10km以上
天気現象
なし
気温7℃
湿度61%
気圧1020hPa
METARUGTB 211800Z 28005KT 260V320 CAVOK 07/00 Q1020 R31L/CLRD70 NOSIG
過去の天気等 Google飛行場航空写真 Wunderground天気予報

過去48時間のMETAR

飛行場予報(TAF)
発表時間: 1/21 21:00 GET (1/21 17:00 UTC)
予報対象時間: 21日22時 GET ~ 22日22時 GET
風向・風速北 3m/s
視程8,000m
なし
22日2時 GET ~ 22日10時 GET に 確率 40% で一時的に
視程400m
天気現象
全天を覆う雲 鉛直視程 30m
TAF UGTB 211700Z 2118/2218 35005KT 8000 NSC TX11/2212Z TN01/2202Z
PROB40 TEMPO 2122/2206 0400 FG VV001